Time;durP1;ratioP1;P1;durP2;ratioP2;P2;SDS_P1;SDS_P2;PMS_P1;PMS_P2;Temp;Humidity;BMP_temperature;BMP_pressure;BME280_temperature;BME280_humidity;BME280_pressure;Samples;Min_cycle;Max_cycle;Signal;HPM_P1;HPM_P2
2021/06/17 00:01:47;;;;;;;10.57;8.98;;;21.30;92.10;;;;;;5013624;28;20168;-70
2021/06/17 00:04:12;;;;;;;13.48;9.00;;;21.30;92.20;;;;;;5013711;28;20153;-70
2021/06/17 00:06:38;;;;;;;9.98;8.98;;;21.30;92.40;;;;;;5013802;28;20045;-70
2021/06/17 00:09:05;;;;;;;10.88;8.15;;;21.20;92.50;;;;;;5013516;28;20049;-70
2021/06/17 00:11:31;;;;;;;10.38;9.10;;;21.20;92.60;;;;;;5013997;28;20042;-70
2021/06/17 00:13:56;;;;;;;11.68;8.00;;;21.20;92.70;;;;;;5016554;28;20125;-70
2021/06/17 00:16:22;;;;;;;11.27;8.52;;;21.10;92.70;;;;;;5017345;28;20044;-70
2021/06/17 00:18:48;;;;;;;16.48;8.60;;;21.20;92.80;;;;;;5017502;28;20041;-70
2021/06/17 00:21:15;;;;;;;10.98;8.93;;;21.10;93.00;;;;;;5017575;28;20038;-70
2021/06/17 00:23:40;;;;;;;14.80;9.20;;;21.10;93.10;;;;;;5017837;28;20420;-70
2021/06/17 00:26:07;;;;;;;11.75;9.27;;;21.10;93.30;;;;;;5017600;28;20041;-70
2021/06/17 00:28:33;;;;;;;10.45;8.82;;;21.10;93.30;;;;;;5016939;28;20042;-70
2021/06/17 00:30:59;;;;;;;11.25;9.45;;;21.10;93.40;;;;;;5017115;28;20042;-70
2021/06/17 00:33:25;;;;;;;12.60;9.48;;;21.10;93.40;;;;;;5017585;28;20049;-70
2021/06/17 00:35:51;;;;;;;12.93;9.35;;;21.20;93.50;;;;;;5017460;28;20111;-70
2021/06/17 00:38:17;;;;;;;10.98;8.85;;;21.10;93.60;;;;;;5017165;28;20486;-70
2021/06/17 00:40:43;;;;;;;10.93;9.63;;;21.10;93.60;;;;;;5016535;28;20080;-70
2021/06/17 00:43:09;;;;;;;10.75;9.50;;;21.10;93.70;;;;;;5017600;28;20488;-70
2021/06/17 00:45:40;;;;;;;12.23;10.05;;;21.10;93.90;;;;;;5016784;28;20106;-70
2021/06/17 00:48:08;;;;;;;13.20;10.25;;;21.10;93.90;;;;;;5017086;28;20471;-70
2021/06/17 00:50:42;;;;;;;11.60;10.40;;;21.10;94.00;;;;;;5016459;28;20045;-70
2021/06/17 00:53:12;;;;;;;12.88;10.65;;;21.10;94.30;;;;;;5017209;28;20494;-70
2021/06/17 00:55:40;;;;;;;14.60;10.65;;;21.00;94.30;;;;;;5016929;28;20045;-70
2021/06/17 00:58:06;;;;;;;11.88;10.60;;;20.90;94.30;;;;;;5016594;28;20037;-70
2021/06/17 01:00:32;;;;;;;14.43;10.68;;;21.00;94.40;;;;;;5016468;28;20041;-70
2021/06/17 01:02:59;;;;;;;16.52;11.63;;;21.00;94.60;;;;;;5016982;28;20034;-70
2021/06/17 01:05:26;;;;;;;12.32;11.15;;;21.00;94.70;;;;;;5015493;28;20038;-70
2021/06/17 01:08:02;;;;;;;16.55;12.38;;;21.00;94.80;;;;;;5017040;28;20068;-70
2021/06/17 01:10:54;;;;;;;15.75;11.63;;;21.00;94.70;;;;;;5016103;28;20061;-70
2021/06/17 01:13:47;;;;;;;13.23;11.85;;;20.90;95.00;;;;;;5015070;28;20053;-70
2021/06/17 01:16:34;;;;;;;12.80;11.48;;;20.90;95.10;;;;;;5016209;28;20069;-70
2021/06/17 01:19:07;;;;;;;16.10;11.98;;;20.90;95.20;;;;;;5016437;28;20116;-70
2021/06/17 01:21:44;;;;;;;14.48;12.95;;;20.90;95.30;;;;;;5016231;28;20044;-70
2021/06/17 01:24:35;;;;;;;16.90;12.75;;;20.90;95.40;;;;;;5016251;28;20038;-70
2021/06/17 01:27:38;;;;;;;16.35;13.05;;;20.80;95.70;;;;;;5016239;28;20034;-70
2021/06/17 01:30:10;;;;;;;14.55;12.57;;;20.80;95.60;;;;;;5015945;28;20034;-70
2021/06/17 01:32:40;;;;;;;16.63;14.00;;;20.80;95.70;;;;;;5016267;28;20034;-70
2021/06/17 01:35:08;;;;;;;16.05;13.80;;;20.80;96.00;;;;;;5016602;28;20076;-70
2021/06/17 01:37:35;;;;;;;16.80;15.02;;;20.80;96.00;;;;;;5015835;28;20049;-70
2021/06/17 01:40:02;;;;;;;16.77;14.98;;;20.80;96.00;;;;;;5015634;28;20539;-70
2021/06/17 01:42:30;;;;;;;16.73;15.02;;;20.80;96.20;;;;;;5015867;28;20044;-70
2021/06/17 01:44:57;;;;;;;17.27;15.07;;;20.70;96.20;;;;;;5015779;28;20209;-70
2021/06/17 01:47:25;;;;;;;16.45;14.48;;;20.70;96.30;;;;;;5016323;28;20050;-70
2021/06/17 01:49:51;;;;;;;19.73;15.20;;;20.70;96.50;;;;;;5015553;28;20096;-70
2021/06/17 01:52:19;;;;;;;17.02;15.25;;;20.70;96.50;;;;;;5015738;28;20489;-70
2021/06/17 01:54:45;;;;;;;18.40;16.35;;;20.70;96.60;;;;;;5016150;28;20037;-70
2021/06/17 01:57:14;;;;;;;18.15;15.13;;;20.70;96.70;;;;;;5015676;28;20045;-70
2021/06/17 01:59:44;;;;;;;22.30;16.65;;;20.70;96.70;;;;;;5015338;28;20038;-70
2021/06/17 02:02:12;;;;;;;19.80;16.45;;;20.70;96.90;;;;;;5015553;28;20030;-70
2021/06/17 02:04:39;;;;;;;20.95;17.00;;;20.70;96.80;;;;;;5015469;28;20053;-70
2021/06/17 02:07:06;;;;;;;21.30;17.77;;;20.60;97.00;;;;;;5015491;28;20049;-70
2021/06/17 02:09:33;;;;;;;23.40;17.13;;;20.70;97.00;;;;;;5015216;28;20042;-70
2021/06/17 02:11:59;;;;;;;20.42;16.80;;;20.70;97.10;;;;;;5015610;28;20042;-70
2021/06/17 02:14:27;;;;;;;19.33;17.35;;;20.60;97.10;;;;;;5015463;28;20540;-70
2021/06/17 02:16:55;;;;;;;20.35;17.08;;;20.60;97.20;;;;;;5015375;28;20046;-70
2021/06/17 02:19:24;;;;;;;21.98;18.58;;;20.60;97.30;;;;;;5015070;28;20041;-70
2021/06/17 02:21:53;;;;;;;27.85;17.77;;;20.60;97.30;;;;;;5015350;28;20069;-70
2021/06/17 02:24:21;;;;;;;20.48;17.50;;;20.50;97.50;;;;;;5015081;28;20489;-70
2021/06/17 02:26:50;;;;;;;19.92;17.92;;;20.50;97.40;;;;;;5015514;28;20041;-70
2021/06/17 02:29:18;;;;;;;20.45;18.00;;;20.50;97.50;;;;;;5014671;28;20042;-70
2021/06/17 02:31:47;;;;;;;22.98;18.52;;;20.60;97.50;;;;;;5014839;28;20104;-70
2021/06/17 02:34:14;;;;;;;19.73;17.50;;;20.50;97.70;;;;;;5015178;28;20064;-70
2021/06/17 02:36:41;;;;;;;20.00;17.95;;;20.50;97.70;;;;;;5013465;28;20049;-70
2021/06/17 02:39:08;;;;;;;21.70;18.75;;;20.50;97.80;;;;;;5014766;28;20077;-70
2021/06/17 02:41:38;;;;;;;24.00;19.80;;;20.60;97.90;;;;;;5015622;28;20041;-70
2021/06/17 02:44:05;;;;;;;26.80;21.45;;;20.50;97.90;;;;;;5014718;28;20486;-70
2021/06/17 02:46:30;;;;;;;23.42;19.00;;;20.50;98.00;;;;;;5014693;28;20474;-70
2021/06/17 02:48:56;;;;;;;23.95;19.77;;;20.50;97.90;;;;;;5014530;28;20046;-70
2021/06/17 02:51:22;;;;;;;22.80;20.40;;;20.50;98.00;;;;;;5014544;28;20442;-70
2021/06/17 02:53:49;;;;;;;22.15;19.15;;;20.60;98.10;;;;;;5014904;28;20478;-70
2021/06/17 02:56:45;;;;;;;26.55;21.08;;;20.60;98.10;;;;;;5014714;28;20037;-70
2021/06/17 02:59:32;;;;;;;21.52;19.42;;;20.50;98.10;;;;;;5014312;28;20500;-70
2021/06/17 03:02:08;;;;;;;23.75;20.42;;;20.50;98.50;;;;;;5014779;28;20053;-70
2021/06/17 03:04:44;;;;;;;29.73;21.85;;;20.50;98.50;;;;;;5015208;28;20474;-70
2021/06/17 03:07:17;;;;;;;26.08;21.27;;;20.40;98.50;;;;;;5014379;28;20041;-70
2021/06/17 03:09:49;;;;;;;23.00;20.80;;;20.40;98.50;;;;;;5014520;28;20462;-70
2021/06/17 03:12:20;;;;;;;21.95;19.73;;;20.40;98.60;;;;;;5014509;28;20512;-70
2021/06/17 03:14:48;;;;;;;23.73;21.20;;;20.40;98.70;;;;;;5014888;28;20038;-70
2021/06/17 03:17:16;;;;;;;25.10;22.27;;;20.40;98.60;;;;;;5014061;28;20041;-70
2021/06/17 03:19:43;;;;;;;24.13;20.55;;;20.40;98.80;;;;;;5013933;28;20041;-70
2021/06/17 03:22:13;;;;;;;22.15;20.05;;;20.40;98.70;;;;;;5014325;28;20042;-70
2021/06/17 03:24:43;;;;;;;24.77;20.45;;;20.40;98.80;;;;;;5013994;28;20552;-70
2021/06/17 03:27:09;;;;;;;23.80;20.73;;;20.40;98.80;;;;;;5014380;28;20065;-70
2021/06/17 03:29:40;;;;;;;23.52;21.00;;;20.40;98.90;;;;;;5014009;28;20092;-70
2021/06/17 03:32:08;;;;;;;24.88;20.73;;;20.40;98.90;;;;;;5014045;28;20050;-70
2021/06/17 03:34:37;;;;;;;24.73;21.02;;;20.40;99.00;;;;;;5013913;28;20096;-70
2021/06/17 03:37:03;;;;;;;23.05;20.65;;;20.40;99.00;;;;;;5013842;28;20046;-70
2021/06/17 03:39:30;;;;;;;24.73;22.13;;;20.40;99.00;;;;;;5013531;28;20042;-71
2021/06/17 03:41:56;;;;;;;23.80;21.33;;;20.40;99.10;;;;;;5014159;28;20429;-70
2021/06/17 03:44:24;;;;;;;23.42;21.00;;;20.40;99.10;;;;;;5013911;28;20093;-70
2021/06/17 03:46:50;;;;;;;24.27;21.75;;;20.40;99.10;;;;;;5013643;28;20038;-70
2021/06/17 03:49:17;;;;;;;23.50;21.15;;;20.40;99.10;;;;;;5013508;28;20533;-70
2021/06/17 03:51:43;;;;;;;25.45;22.80;;;20.40;99.10;;;;;;5013806;28;20103;-70
2021/06/17 03:54:10;;;;;;;23.33;20.58;;;20.50;99.20;;;;;;5013939;28;20120;-70
2021/06/17 03:56:37;;;;;;;23.20;20.48;;;20.40;99.10;;;;;;5014019;28;20044;-70
2021/06/17 03:59:03;;;;;;;27.90;21.77;;;20.50;99.20;;;;;;5013564;28;20046;-70
2021/06/17 04:01:30;;;;;;;22.92;20.45;;;20.50;99.10;;;;;;5013773;28;20395;-70
2021/06/17 04:03:56;;;;;;;21.90;19.80;;;20.50;99.10;;;;;;5013717;28;20042;-70
2021/06/17 04:06:25;;;;;;;28.27;22.42;;;20.50;99.00;;;;;;5013512;28;20114;-70
2021/06/17 04:08:52;;;;;;;24.65;22.25;;;20.60;99.00;;;;;;5013598;28;20486;-70
2021/06/17 04:11:20;;;;;;;24.88;22.02;;;20.50;99.00;;;;;;5013532;28;20076;-70
2021/06/17 04:13:48;;;;;;;23.05;20.85;;;20.50;99.00;;;;;;5013588;28;20129;-70
2021/06/17 04:16:25;;;;;;;25.05;22.55;;;20.60;99.00;;;;;;5013579;28;20060;-70
2021/06/17 04:18:53;;;;;;;24.70;22.23;;;20.50;99.00;;;;;;5013476;28;20080;-70
2021/06/17 04:21:20;;;;;;;25.67;22.92;;;20.60;99.10;;;;;;5013571;28;20054;-70
2021/06/17 04:23:56;;;;;;;23.92;21.55;;;20.60;99.20;;;;;;5013793;28;20034;-70
2021/06/17 04:26:24;;;;;;;25.27;22.55;;;20.60;99.00;;;;;;5013822;28;20092;-70
2021/06/17 04:28:53;;;;;;;28.80;25.50;;;20.60;99.00;;;;;;5012896;28;20046;-70
2021/06/17 04:31:19;;;;;;;26.17;23.33;;;20.70;99.10;;;;;;5013234;28;20049;-70
2021/06/17 04:33:47;;;;;;;27.13;24.35;;;20.80;99.00;;;;;;5013405;28;20085;-70
2021/06/17 04:36:14;;;;;;;25.83;23.20;;;20.80;99.00;;;;;;5013316;28;20061;-70
2021/06/17 04:38:39;;;;;;;26.38;23.65;;;20.80;98.80;;;;;;5012972;28;20041;-70
2021/06/17 04:41:08;;;;;;;25.55;23.05;;;20.90;98.80;;;;;;5013090;28;20057;-70
2021/06/17 04:43:35;;;;;;;25.27;22.77;;;21.00;98.70;;;;;;5013258;28;20052;-70
2021/06/17 04:46:01;;;;;;;25.85;23.05;;;21.00;98.60;;;;;;5013632;28;20379;-70
2021/06/17 04:48:33;;;;;;;25.08;22.40;;;21.10;98.50;;;;;;5013613;28;20103;-71
2021/06/17 04:51:01;;;;;;;24.35;21.95;;;21.30;98.40;;;;;;5013211;28;20038;-71
2021/06/17 04:53:29;;;;;;;24.50;22.02;;;21.40;98.20;;;;;;5013055;28;20042;-70
2021/06/17 04:55:55;;;;;;;23.48;21.17;;;21.60;98.00;;;;;;5013304;28;20046;-70
2021/06/17 04:58:24;;;;;;;23.90;21.60;;;21.70;97.60;;;;;;5013142;28;20045;-71
2021/06/17 05:00:51;;;;;;;23.83;21.30;;;22.00;97.40;;;;;;5015292;28;20069;-70
2021/06/17 05:03:17;;;;;;;23.70;21.30;;;22.20;97.30;;;;;;5017510;28;20046;-72
2021/06/17 05:05:43;;;;;;;24.58;21.75;;;22.30;96.70;;;;;;5016465;28;20040;-72
2021/06/17 05:10:48;;;;;;;23.30;20.95;;;22.50;96.20;;;;;;5016511;28;20116;-72
2021/06/17 05:13:26;;;;;;;23.20;20.88;;;22.80;95.80;;;;;;5016401;28;20045;-71
2021/06/17 05:15:58;;;;;;;22.77;20.48;;;23.00;95.20;;;;;;5017017;28;20038;-72
2021/06/17 05:18:27;;;;;;;21.80;19.55;;;23.30;95.10;;;;;;5016744;28;20096;-72
2021/06/17 05:20:54;;;;;;;21.55;18.52;;;23.50;94.80;;;;;;5016259;28;20096;-70
2021/06/17 05:23:21;;;;;;;21.38;19.27;;;23.70;94.40;;;;;;5016623;28;20048;-71
2021/06/17 05:25:49;;;;;;;20.52;18.42;;;23.90;94.00;;;;;;5016669;28;20049;-71
2021/06/17 05:28:17;;;;;;;21.05;18.23;;;24.00;93.80;;;;;;5015948;28;20054;-71
2021/06/17 05:30:45;;;;;;;20.58;18.48;;;24.10;93.40;;;;;;5015675;28;20081;-71
2021/06/17 05:33:11;;;;;;;20.13;18.17;;;24.30;93.20;;;;;;5016104;28;20069;-71
2021/06/17 05:35:38;;;;;;;19.83;17.73;;;24.50;92.90;;;;;;5016348;28;20038;-71
2021/06/17 05:38:04;;;;;;;18.92;17.08;;;24.60;92.50;;;;;;5016335;28;20041;-71
2021/06/17 05:40:31;;;;;;;22.38;17.02;;;24.80;91.90;;;;;;5015967;28;20065;-71
2021/06/17 05:42:56;;;;;;;20.02;17.45;;;24.90;91.70;;;;;;5015321;28;20042;-72
2021/06/17 05:45:22;;;;;;;19.58;17.58;;;24.90;91.40;;;;;;5015921;28;20076;-71
2021/06/17 05:47:48;;;;;;;19.67;17.50;;;25.20;91.30;;;;;;5015758;28;20389;-71
2021/06/17 05:50:14;;;;;;;19.48;17.25;;;25.30;91.20;;;;;;5015599;28;20074;-71
2021/06/17 05:52:40;;;;;;;18.33;16.48;;;25.40;90.70;;;;;;5016219;28;20480;-71
2021/06/17 05:55:07;;;;;;;20.92;15.57;;;25.40;90.50;;;;;;5016107;28;20551;-71
2021/06/17 05:57:34;;;;;;;17.73;15.85;;;25.70;90.30;;;;;;5015595;28;20045;-71
2021/06/17 06:00:00;;;;;;;18.83;16.92;;;25.90;90.00;;;;;;5015161;28;20165;-71
2021/06/17 06:02:25;;;;;;;15.48;13.95;;;26.10;89.40;;;;;;5015426;28;20065;-70
2021/06/17 06:04:52;;;;;;;18.75;15.68;;;26.20;88.10;;;;;;5015633;28;20038;-71
2021/06/17 06:07:18;;;;;;;17.63;15.50;;;26.30;87.40;;;;;;5015463;28;20038;-71
2021/06/17 06:09:44;;;;;;;18.08;14.77;;;26.30;87.10;;;;;;5015074;28;20044;-71
2021/06/17 06:12:10;;;;;;;17.98;16.02;;;26.40;86.80;;;;;;5015271;28;20124;-71
2021/06/17 06:14:37;;;;;;;17.52;14.30;;;26.60;86.70;;;;;;5015196;28;20046;-71
2021/06/17 06:17:04;;;;;;;18.92;15.45;;;26.80;86.40;;;;;;5015280;28;20038;-70
2021/06/17 06:19:31;;;;;;;17.52;15.85;;;26.80;85.10;;;;;;5014938;28;20034;-71
2021/06/17 06:21:57;;;;;;;15.95;13.57;;;27.00;85.40;;;;;;5014997;28;20443;-70
2021/06/17 06:24:23;;;;;;;20.25;14.63;;;27.10;85.50;;;;;;5015008;28;20117;-70
2021/06/17 06:26:49;;;;;;;16.50;14.80;;;27.20;85.40;;;;;;5015483;28;20125;-71
2021/06/17 06:29:15;;;;;;;15.57;13.90;;;27.20;84.80;;;;;;5014547;28;20084;-71
2021/06/17 06:31:41;;;;;;;15.68;13.75;;;27.50;84.50;;;;;;5014881;28;20084;-71
2021/06/17 06:34:06;;;;;;;14.70;13.15;;;27.30;83.80;;;;;;5015066;28;20474;-70
2021/06/17 06:36:32;;;;;;;16.52;14.43;;;27.60;84.30;;;;;;5015284;28;20034;-70
2021/06/17 06:38:58;;;;;;;17.60;13.82;;;27.60;83.60;;;;;;5014207;28;20052;-70
2021/06/17 06:41:24;;;;;;;15.23;12.82;;;27.70;83.40;;;;;;5014858;28;20064;-71
2021/06/17 06:43:49;;;;;;;14.88;13.35;;;27.80;83.10;;;;;;5015015;28;20073;-70
2021/06/17 06:46:15;;;;;;;14.63;12.95;;;28.10;83.40;;;;;;5014563;28;20042;-70
2021/06/17 06:48:41;;;;;;;14.82;13.27;;;28.00;82.20;;;;;;5014335;28;20101;-71
2021/06/17 06:51:07;;;;;;;15.50;11.57;;;28.00;81.60;;;;;;5014745;28;20049;-70
2021/06/17 06:53:33;;;;;;;16.05;11.32;;;28.20;82.30;;;;;;5015112;28;20034;-70
2021/06/17 06:55:58;;;;;;;13.63;11.85;;;28.30;82.20;;;;;;5014471;28;20499;-70
2021/06/17 06:58:24;;;;;;;12.75;11.45;;;28.30;80.70;;;;;;5043692;28;20045;-71
2021/06/17 07:00:50;;;;;;;14.32;12.20;;;28.70;80.10;;;;;;5053930;28;20033;-70
2021/06/17 07:03:15;;;;;;;12.30;10.85;;;28.70;78.70;;;;;;5053985;28;20041;-70
2021/06/17 07:05:41;;;;;;;12.38;10.30;;;28.90;78.00;;;;;;5052764;28;20037;-70
2021/06/17 07:08:10;;;;;;;13.40;11.40;;;28.90;77.80;;;;;;5054115;28;20041;-71
2021/06/17 07:10:37;;;;;;;12.48;9.98;;;29.10;77.40;;;;;;5053472;28;20045;-71
2021/06/17 07:13:04;;;;;;;12.43;10.55;;;29.20;77.40;;;;;;5053844;28;20044;-70
2021/06/17 07:15:30;;;;;;;11.00;9.32;;;29.30;76.80;;;;;;5053974;28;20068;-70
2021/06/17 07:17:56;;;;;;;11.90;9.55;;;29.50;77.30;;;;;;5053807;28;20076;-70
2021/06/17 07:20:21;;;;;;;11.05;9.40;;;29.70;77.10;;;;;;5053473;28;20040;-70
2021/06/17 07:22:47;;;;;;;11.05;9.27;;;29.80;76.60;;;;;;5054007;28;20047;-70
2021/06/17 07:25:13;;;;;;;11.35;8.63;;;29.90;76.30;;;;;;5054317;28;20128;-71
2021/06/17 07:27:39;;;;;;;10.60;9.57;;;30.00;75.80;;;;;;5053502;28;20041;-70
2021/06/17 07:30:09;;;;;;;12.73;9.65;;;30.10;76.30;;;;;;5040043;28;20124;-70
2021/06/17 07:32:34;;;;;;;10.30;9.13;;;30.10;74.20;;;;;;5033576;28;20112;-71
2021/06/17 07:35:00;;;;;;;10.13;9.23;;;30.20;74.60;;;;;;5033945;28;20441;-71
2021/06/17 07:37:26;;;;;;;12.68;9.73;;;30.20;74.20;;;;;;5033459;28;20037;-71
2021/06/17 07:39:51;;;;;;;15.73;9.48;;;30.10;74.90;;;;;;5033175;28;20037;-71
2021/06/17 07:42:17;;;;;;;14.32;9.70;;;30.30;74.50;;;;;;5033586;28;20113;-71
2021/06/17 07:44:43;;;;;;;10.90;9.55;;;30.40;75.00;;;;;;5033325;28;20540;-71
2021/06/17 07:47:09;;;;;;;11.13;10.02;;;30.60;74.00;;;;;;5032088;28;20447;-71
2021/06/17 07:49:34;;;;;;;11.27;9.50;;;30.30;73.40;;;;;;5033053;28;20044;-70
2021/06/17 07:52:00;;;;;;;18.20;9.73;;;30.30;73.40;;;;;;5033300;28;20110;-71
2021/06/17 07:54:26;;;;;;;11.23;9.35;;;30.40;74.10;;;;;;5033880;28;20045;-71
2021/06/17 07:56:52;;;;;;;9.93;8.82;;;30.50;73.40;;;;;;5033273;28;20113;-71
2021/06/17 07:59:22;;;;;;;12.90;9.65;;;30.80;73.80;;;;;;5033029;28;20061;-72
2021/06/17 08:01:50;;;;;;;10.10;9.05;;;30.70;73.80;;;;;;5032389;28;20044;-71
2021/06/17 08:04:16;;;;;;;15.13;9.70;;;30.80;73.90;;;;;;5033143;28;20091;-71
2021/06/17 08:06:42;;;;;;;9.93;8.88;;;30.70;73.60;;;;;;5033737;28;20029;-71
2021/06/17 08:09:08;;;;;;;9.43;8.52;;;30.80;73.00;;;;;;5031494;28;20055;-71
2021/06/17 08:11:35;;;;;;;10.60;9.38;;;30.90;73.30;;;;;;5033091;28;20401;-71
2021/06/17 08:14:01;;;;;;;9.95;8.93;;;31.00;72.90;;;;;;5033343;28;20391;-71
2021/06/17 08:16:27;;;;;;;13.80;9.23;;;31.20;72.50;;;;;;5033185;28;20049;-71
2021/06/17 08:18:54;;;;;;;15.90;8.52;;;31.30;71.70;;;;;;5032003;28;20041;-71
2021/06/17 08:21:24;;;;;;;10.35;8.30;;;31.30;71.70;;;;;;5032723;28;20492;-71
2021/06/17 08:23:50;;;;;;;11.45;7.93;;;31.30;71.30;;;;;;5033927;28;20052;-71
2021/06/17 08:26:16;;;;;;;12.48;8.55;;;31.40;71.30;;;;;;5033387;28;20088;-71
2021/06/17 08:28:41;;;;;;;9.48;8.60;;;31.30;71.80;;;;;;5032555;28;20393;-71
2021/06/17 08:31:09;;;;;;;10.70;8.20;;;31.40;71.90;;;;;;5032710;28;20052;-70
2021/06/17 08:33:37;;;;;;;13.98;7.70;;;31.60;72.60;;;;;;5032186;28;20063;-71
2021/06/17 08:36:07;;;;;;;12.50;7.40;;;31.60;71.10;;;;;;5037109;28;20044;-71
2021/06/17 08:38:34;;;;;;;10.27;8.05;;;32.10;70.90;;;;;;5036472;28;20099;-71
2021/06/17 08:41:00;;;;;;;9.00;7.32;;;32.00;71.80;;;;;;5037141;28;20037;-71
2021/06/17 08:43:26;;;;;;;11.73;7.68;;;32.30;72.40;;;;;;5037065;28;20048;-70
2021/06/17 08:45:52;;;;;;;8.15;7.35;;;32.20;69.40;;;;;;5036489;28;20060;-71
2021/06/17 08:48:17;;;;;;;7.53;6.82;;;31.90;68.40;;;;;;5036680;28;20171;-71
2021/06/17 08:50:43;;;;;;;10.73;7.80;;;32.10;68.30;;;;;;5035256;28;20041;-71
2021/06/17 08:53:08;;;;;;;12.38;7.60;;;32.30;68.90;;;;;;5036514;28;20409;-71
2021/06/17 08:55:36;;;;;;;8.38;7.45;;;32.20;68.70;;;;;;5036386;28;20496;-71
2021/06/17 08:58:02;;;;;;;10.18;7.75;;;32.20;68.90;;;;;;5036330;28;20489;-71
2021/06/17 09:00:29;;;;;;;12.13;7.50;;;32.40;69.10;;;;;;5036353;28;20060;-71
2021/06/17 09:02:56;;;;;;;8.10;7.13;;;32.60;68.90;;;;;;5036839;28;20489;-70
2021/06/17 09:05:24;;;;;;;8.23;6.95;;;32.80;68.40;;;;;;5036411;28;20037;-71
2021/06/17 09:07:50;;;;;;;14.05;7.75;;;32.80;66.70;;;;;;5035921;28;20086;-70
2021/06/17 09:10:17;;;;;;;7.68;6.90;;;32.70;67.30;;;;;;5035865;28;20108;-71
2021/06/17 09:12:49;;;;;;;8.38;7.28;;;32.70;66.80;;;;;;5036128;28;20037;-70
2021/06/17 09:15:30;;;;;;;8.07;6.78;;;32.90;67.20;;;;;;5036456;28;20041;-71
2021/06/17 09:18:22;;;;;;;10.63;8.10;;;32.90;65.10;;;;;;5035424;28;20057;-71
2021/06/17 09:20:57;;;;;;;8.27;7.35;;;32.70;65.20;;;;;;5035878;28;20045;-71
2021/06/17 09:23:31;;;;;;;8.60;6.78;;;32.50;65.40;;;;;;5036251;28;20041;-70
2021/06/17 09:26:11;;;;;;;10.20;7.40;;;32.70;66.70;;;;;;5035903;28;20045;-71
2021/06/17 09:29:05;;;;;;;8.20;7.18;;;32.60;66.60;;;;;;5035499;28;20560;-72
2021/06/17 09:31:42;;;;;;;11.93;7.53;;;32.50;65.10;;;;;;5035541;28;20054;-72
2021/06/17 09:34:10;;;;;;;8.00;7.03;;;32.50;65.80;;;;;;5035916;28;20037;-71
2021/06/17 09:36:40;;;;;;;9.70;7.53;;;32.70;66.60;;;;;;5034793;28;20041;-71
2021/06/17 09:39:15;;;;;;;8.23;7.43;;;32.60;65.40;;;;;;5035346;28;20079;-72
2021/06/17 09:41:51;;;;;;;9.43;7.55;;;32.60;67.40;;;;;;5035999;28;20037;-71
2021/06/17 09:44:31;;;;;;;9.32;7.70;;;32.60;65.50;;;;;;5036153;28;20042;-71
2021/06/17 09:47:04;;;;;;;8.02;6.53;;;32.60;67.00;;;;;;5036190;28;20037;-71
2021/06/17 09:49:30;;;;;;;9.43;6.95;;;32.30;66.50;;;;;;5035162;28;20544;-71
2021/06/17 09:51:56;;;;;;;9.45;7.20;;;32.30;68.20;;;;;;5035679;28;20038;-71
2021/06/17 09:54:25;;;;;;;11.98;6.65;;;32.40;67.10;;;;;;5035437;28;20033;-72
2021/06/17 09:57:04;;;;;;;12.23;7.53;;;32.40;67.80;;;;;;5035687;28;20084;-71
2021/06/17 09:59:49;;;;;;;7.20;6.50;;;32.40;66.80;;;;;;5035393;28;20042;-71
2021/06/17 10:02:22;;;;;;;8.68;6.57;;;32.30;65.00;;;;;;5035331;28;20379;-71
2021/06/17 10:04:48;;;;;;;6.93;6.32;;;32.40;65.30;;;;;;5035227;28;20501;-72
2021/06/17 10:07:16;;;;;;;7.50;6.40;;;32.50;66.50;;;;;;5035695;28;20041;-71
2021/06/17 10:09:44;;;;;;;6.85;6.18;;;32.40;65.80;;;;;;5034826;28;20042;-72
2021/06/17 10:12:10;;;;;;;10.52;6.05;;;32.30;64.80;;;;;;5035095;28;20041;-72
2021/06/17 10:14:36;;;;;;;8.40;5.97;;;32.40;65.40;;;;;;5035192;28;20356;-71
2021/06/17 10:17:04;;;;;;;10.35;5.90;;;32.60;65.10;;;;;;5035325;28;20494;-71
2021/06/17 10:19:33;;;;;;;6.43;5.40;;;32.70;65.70;;;;;;5034878;28;20042;-71
2021/06/17 10:22:01;;;;;;;8.95;5.45;;;32.90;65.80;;;;;;5034096;28;20136;-71
2021/06/17 10:24:30;;;;;;;5.38;4.88;;;32.90;64.40;;;;;;5034782;28;20065;-71
2021/06/17 10:27:05;;;;;;;8.95;5.80;;;32.90;63.20;;;;;;5034921;28;20040;-72
2021/06/17 10:29:48;;;;;;;8.10;5.30;;;33.00;63.10;;;;;;5034584;28;20041;-72
2021/06/17 10:32:17;;;;;;;6.80;4.70;;;32.80;64.40;;;;;;5034837;28;20049;-72
2021/06/17 10:34:49;;;;;;;9.35;5.43;;;32.80;63.10;;;;;;5035233;28;20037;-72
2021/06/17 10:37:25;;;;;;;8.23;5.05;;;32.90;62.50;;;;;;5034711;28;20044;-72
2021/06/17 10:40:15;;;;;;;9.40;5.00;;;33.00;62.80;;;;;;5034494;28;20377;-73
2021/06/17 10:42:48;;;;;;;6.97;4.82;;;33.10;65.00;;;;;;5034498;28;20378;-72
2021/06/17 10:45:32;;;;;;;7.03;5.10;;;33.10;64.10;;;;;;5033553;28;20116;-73
2021/06/17 10:48:06;;;;;;;5.97;4.80;;;33.20;64.00;;;;;;5034347;28;20042;-73
2021/06/17 10:50:42;;;;;;;4.28;3.85;;;33.30;64.30;;;;;;5033892;28;20126;-71
2021/06/17 10:53:28;;;;;;;8.50;4.45;;;33.50;60.70;;;;;;5034452;28;20570;-70
2021/06/17 10:56:00;;;;;;;5.68;4.15;;;33.50;61.60;;;;;;5034629;28;20561;-70
2021/06/17 10:58:40;;;;;;;6.75;4.15;;;33.30;60.80;;;;;;5034254;28;20425;-71
2021/06/17 11:01:26;;;;;;;5.15;4.65;;;33.20;59.40;;;;;;5034509;28;20549;-71
2021/06/17 11:03:59;;;;;;;4.32;3.83;;;33.30;59.30;;;;;;5034731;28;20531;-71
2021/06/17 11:06:50;;;;;;;5.43;4.00;;;33.30;62.40;;;;;;5034111;28;20041;-71
2021/06/17 11:09:35;;;;;;;4.80;4.28;;;33.30;59.40;;;;;;5033586;28;20037;-71
2021/06/17 11:12:02;;;;;;;4.30;3.90;;;33.40;60.90;;;;;;5034202;28;20047;-71
2021/06/17 11:14:37;;;;;;;5.65;4.07;;;33.40;59.00;;;;;;5033920;28;20037;-71
2021/06/17 11:17:33;;;;;;;8.55;3.80;;;33.40;60.40;;;;;;5034130;28;20065;-71
2021/06/17 11:20:05;;;;;;;5.90;3.60;;;33.40;56.60;;;;;;5033317;28;20057;-71
2021/06/17 11:22:48;;;;;;;6.05;3.95;;;33.50;57.20;;;;;;5033886;28;20037;-71
2021/06/17 11:25:21;;;;;;;6.03;3.92;;;33.40;55.60;;;;;;5033878;28;20405;-71
2021/06/17 11:28:03;;;;;;;4.80;4.07;;;33.40;57.80;;;;;;5033625;28;20108;-76
2021/06/17 11:30:38;;;;;;;4.93;3.58;;;33.90;56.50;;;;;;5033824;28;20058;-76
2021/06/17 11:33:19;;;;;;;6.25;3.55;;;34.00;57.50;;;;;;5032140;28;20041;-76
2021/06/17 11:36:00;;;;;;;8.50;4.35;;;34.10;57.30;;;;;;5032615;28;20613;-77
2021/06/17 11:38:36;;;;;;;9.82;5.00;;;34.10;56.90;;;;;;5032333;28;20383;-77
2021/06/17 11:41:16;;;;;;;5.30;3.50;;;34.20;55.50;;;;;;5033342;28;20068;-76
2021/06/17 11:43:43;;;;;;;12.55;3.97;;;34.10;52.80;;;;;;5033660;28;20065;-76
2021/06/17 11:46:39;;;;;;;7.40;2.90;;;34.10;53.10;;;;;;5033641;28;20513;-76
2021/06/17 11:49:07;;;;;;;3.85;3.10;;;34.20;52.20;;;;;;5024548;28;20053;-77
2021/06/17 11:51:54;;;;;;;5.35;3.40;;;34.10;52.30;;;;;;5034385;28;20072;-76
2021/06/17 11:54:23;;;;;;;7.25;3.60;;;34.20;51.90;;;;;;5033182;28;20041;-76
2021/06/17 11:56:52;;;;;;;3.40;3.10;;;34.30;52.80;;;;;;5031458;28;20120;-75
2021/06/17 11:59:20;;;;;;;5.93;3.28;;;34.30;52.00;;;;;;5033185;28;20112;-76
2021/06/17 12:02:05;;;;;;;3.72;3.33;;;34.20;53.10;;;;;;5033770;28;20045;-76
2021/06/17 12:04:45;;;;;;;7.32;3.58;;;34.20;51.80;;;;;;5032040;28;20477;-76
2021/06/17 12:07:12;;;;;;;6.25;3.60;;;34.20;51.70;;;;;;5033455;28;20068;-75
2021/06/17 12:09:38;;;;;;;7.07;2.95;;;34.20;51.10;;;;;;5034941;28;20045;-75
2021/06/17 12:12:17;;;;;;;7.93;3.40;;;34.20;49.50;;;;;;5036109;28;20042;-76
2021/06/17 12:14:48;;;;;;;5.30;2.92;;;34.20;49.20;;;;;;5036051;28;20065;-76
2021/06/17 12:17:56;;;;;;;9.02;3.42;;;34.10;49.60;;;;;;5037220;28;20073;-75
2021/06/17 12:20:27;;;;;;;11.38;3.35;;;34.10;50.80;;;;;;5017431;28;20057;-75
2021/06/17 12:22:55;;;;;;;9.02;3.25;;;34.10;50.20;;;;;;5037729;28;20041;-74
2021/06/17 12:25:22;;;;;;;4.80;3.08;;;34.00;50.90;;;;;;5037396;28;20065;-75
2021/06/17 12:27:49;;;;;;;7.05;3.30;;;34.00;50.90;;;;;;5036954;28;20041;-75
2021/06/17 12:30:24;;;;;;;4.28;2.88;;;33.90;52.00;;;;;;5036729;28;20107;-74
2021/06/17 12:32:50;;;;;;;4.43;2.50;;;33.90;49.80;;;;;;5036908;28;20038;-74
2021/06/17 12:35:16;;;;;;;29.30;7.38;;;33.80;49.00;;;;;;5037244;28;20397;-76
2021/06/17 12:37:54;;;;;;;8.25;3.35;;;33.80;49.80;;;;;;5036244;28;20037;-75
2021/06/17 12:40:35;;;;;;;7.85;3.40;;;33.80;49.70;;;;;;5036503;28;20037;-74
2021/06/17 12:43:22;;;;;;;6.53;3.40;;;33.80;49.60;;;;;;5037092;28;20037;-74
2021/06/17 12:46:01;;;;;;;5.80;3.20;;;33.90;49.60;;;;;;5036899;28;20069;-74
2021/06/17 12:54:22;;;;;;;10.65;5.00;;;33.80;52.00;;;;;;5036630;28;20489;-74
2021/06/17 12:56:55;;;;;;;3.85;3.03;;;33.90;51.90;;;;;;5036450;28;20076;-74
2021/06/17 12:59:53;;;;;;;8.63;3.00;;;34.00;51.10;;;;;;5036454;28;20044;-74